• Join FlightAware (Why Join?)
  • Login
  • US Flag 
03:35AM EDT


 

Airport Tracker/Info


-or-


 

Live Flight TrackerFlight Track Log ✈ SLI2120 ✈ 20-Aug-2013 ✈ MMGL / GDL - MMCL / CUL

Flight Track Log - Related Links

Times and Time Zones

All times are in EDT time to prevent confusion due to time zone crossing. See the SLI2120 flight status page for this flight to view local times or setup timezone preferences in your user account.

Time Position Orientation Groundspeed Altitude Reporting Facility
EDT Latitude Longitude Course Direction KTS MPH feet Rate Location/Type
11:06AM 22.6890 -105.3926 319° Northwest  Level Estimated
11:07AM 22.7524 -105.4547 318° Northwest  Level Estimated
11:08AM 22.8157 -105.5170 318° Northwest  Level Estimated
11:09AM 22.8790 -105.5793 318° Northwest  Level Estimated
11:10AM 22.9423 -105.6416 318° Northwest  Level Estimated
11:11AM 23.0055 -105.7041 318° Northwest  Level Estimated
11:12AM 23.0687 -105.7665 318° Northwest  Level Estimated
11:13AM 23.1319 -105.8291 318° Northwest  Level Estimated
11:14AM 23.1951 -105.8916 318° Northwest  Level Estimated
11:15AM 23.2582 -105.9543 318° Northwest  Level Estimated
11:16AM 23.3214 -106.0170 318° Northwest  Level Estimated
11:17AM 23.3845 -106.0798 318° Northwest  Level Estimated
11:18AM 23.4475 -106.1426 318° Northwest  Level Estimated
11:19AM 23.5106 -106.2055 318° Northwest  Level Estimated
11:20AM 23.5736 -106.2684 318° Northwest  Level Estimated
11:21AM 23.6366 -106.3315 318° Northwest  Level Estimated
11:22AM 23.6995 -106.3945 317° Northwest  Level Estimated
11:23AM 23.7625 -106.4577 317° Northwest  Level Estimated
11:24AM 23.8254 -106.5209 317° Northwest  Level Estimated
11:25AM 23.8883 -106.5841 317° Northwest  Level Estimated
11:26AM 23.9512 -106.6474 317° Northwest  Level Estimated
11:27AM 24.0140 -106.7108 317° Northwest  Level Estimated
11:28AM 24.0768 -106.7742 317° Northwest  Level Estimated
11:29AM 24.1396 -106.8377 317° Northwest  Level Estimated
11:30AM 24.2024 -106.9013 317° Northwest  Level Estimated
11:31AM 24.2651 -106.9649 317° Northwest  Level Estimated
11:32AM 24.3278 -107.0286 317° Northwest  Level Estimated
11:33AM 24.3905 -107.0924 317° Northwest  Level Estimated
11:34AM 24.4531 -107.1562 317° Northwest  Level Estimated
11:35AM 24.5158 -107.2201 317° Northwest  Level Estimated
11:36AM 24.5784 -107.2840 317° Northwest  Level Estimated
11:37AM 24.6409 -107.3480 317° Northwest  Level Estimated
11:38AM 24.7035 -107.4121 317° Northwest  Level Estimated
11:39AM 24.7645 -107.4747 317° Northwest  Level Estimated
11:40AM 24.7645 -107.4747 138° Southeast  Level Estimated
11:41AM 24.7645 -107.4747 138° Southeast  Level Estimated
11:42AM 24.7645 -107.4747 138° Southeast  Level Estimated
11:43AM 24.7645 -107.4747 138° Southeast  Level Estimated
11:44AM 24.7645 -107.4747 138° Southeast  Level Estimated
11:45AM 24.7645 -107.4747 138° Southeast  Level Estimated
11:46AM 24.7645 -107.4747 138° Southeast  Level Estimated
11:47AM 24.7645 -107.4747 138° Southeast  Level Estimated
11:48AM 24.7645 -107.4747 138° Southeast  Level Estimated
11:49AM 24.7645 -107.4747 138° Southeast  Level Estimated
11:50AM 24.7645 -107.4747 138° Southeast  Level Estimated